sensor_id;sensor_type;location;lat;lon;timestamp;pressure;altitude;pressure_sealevel;temperature;humidity
13050;BME280;6591;51.446;5.404;2023-03-25T00:01:32;99954.91;;;16.16;50.56
13050;BME280;6591;51.446;5.404;2023-03-25T00:04:01;99953.78;;;16.18;50.51
13050;BME280;6591;51.446;5.404;2023-03-25T00:06:31;99966.09;;;16.21;50.50
13050;BME280;6591;51.446;5.404;2023-03-25T00:09:02;99956.22;;;16.21;50.38
13050;BME280;6591;51.446;5.404;2023-03-25T00:11:30;99964.13;;;16.23;50.29
13050;BME280;6591;51.446;5.404;2023-03-25T00:13:57;99962.44;;;16.22;50.12
13050;BME280;6591;51.446;5.404;2023-03-25T00:16:24;99962.28;;;16.23;50.28
13050;BME280;6591;51.446;5.404;2023-03-25T00:18:51;99957.78;;;16.24;50.43
13050;BME280;6591;51.446;5.404;2023-03-25T00:21:19;99948.91;;;16.23;50.20
13050;BME280;6591;51.446;5.404;2023-03-25T00:23:46;99944.38;;;16.24;50.21
13050;BME280;6591;51.446;5.404;2023-03-25T00:26:13;99941.72;;;16.24;50.01
13050;BME280;6591;51.446;5.404;2023-03-25T00:28:40;99939.88;;;16.24;49.82
13050;BME280;6591;51.446;5.404;2023-03-25T00:31:13;99947.22;;;16.22;49.91
13050;BME280;6591;51.446;5.404;2023-03-25T00:33:41;99943.69;;;16.22;49.61
13050;BME280;6591;51.446;5.404;2023-03-25T00:36:09;99937.59;;;16.20;49.97
13050;BME280;6591;51.446;5.404;2023-03-25T00:38:40;99942.94;;;16.20;50.08
13050;BME280;6591;51.446;5.404;2023-03-25T00:41:22;99933.59;;;16.14;49.65
13050;BME280;6591;51.446;5.404;2023-03-25T00:43:57;99937.25;;;16.13;49.51
13050;BME280;6591;51.446;5.404;2023-03-25T00:46:28;99939.22;;;16.11;49.55
13050;BME280;6591;51.446;5.404;2023-03-25T00:48:57;99941.03;;;16.10;49.60
13050;BME280;6591;51.446;5.404;2023-03-25T00:51:26;99940.19;;;16.10;50.07
13050;BME280;6591;51.446;5.404;2023-03-25T00:53:58;99940.31;;;16.08;49.56
13050;BME280;6591;51.446;5.404;2023-03-25T00:56:30;99932.28;;;16.08;49.52
13050;BME280;6591;51.446;5.404;2023-03-25T00:58:57;99944.09;;;16.06;49.50
13050;BME280;6591;51.446;5.404;2023-03-25T01:01:26;99940.69;;;16.04;49.43
13050;BME280;6591;51.446;5.404;2023-03-25T01:03:56;99933.63;;;16.03;49.74
13050;BME280;6591;51.446;5.404;2023-03-25T01:06:30;99936.47;;;16.01;49.70
13050;BME280;6591;51.446;5.404;2023-03-25T01:09:00;99943.50;;;16.02;49.58
13050;BME280;6591;51.446;5.404;2023-03-25T01:11:30;99937.28;;;16.02;49.76
13050;BME280;6591;51.446;5.404;2023-03-25T01:14:18;99935.72;;;15.99;49.82
13050;BME280;6591;51.446;5.404;2023-03-25T01:16:46;99930.38;;;15.99;49.83
13050;BME280;6591;51.446;5.404;2023-03-25T01:19:13;99926.72;;;16.00;49.61
13050;BME280;6591;51.446;5.404;2023-03-25T01:21:41;99928.66;;;15.98;49.44
13050;BME280;6591;51.446;5.404;2023-03-25T01:24:13;99918.34;;;15.94;49.57
13050;BME280;6591;51.446;5.404;2023-03-25T01:26:43;99934.50;;;15.92;49.56
13050;BME280;6591;51.446;5.404;2023-03-25T01:29:16;99930.41;;;15.88;49.38
13050;BME280;6591;51.446;5.404;2023-03-25T01:31:44;99930.50;;;15.87;49.54
13050;BME280;6591;51.446;5.404;2023-03-25T01:34:14;99932.72;;;15.82;49.33
13050;BME280;6591;51.446;5.404;2023-03-25T01:36:41;99938.44;;;15.77;49.36
13050;BME280;6591;51.446;5.404;2023-03-25T01:39:16;99933.59;;;15.71;49.42
13050;BME280;6591;51.446;5.404;2023-03-25T01:41:47;99929.34;;;15.68;49.71
13050;BME280;6591;51.446;5.404;2023-03-25T01:46:50;99939.44;;;15.65;49.64
13050;BME280;6591;51.446;5.404;2023-03-25T01:49:37;99929.00;;;15.62;49.67
13050;BME280;6591;51.446;5.404;2023-03-25T01:54:36;99931.19;;;15.68;49.84
13050;BME280;6591;51.446;5.404;2023-03-25T01:57:07;99919.50;;;15.69;50.05
13050;BME280;6591;51.446;5.404;2023-03-25T01:59:36;99930.22;;;15.69;49.66
13050;BME280;6591;51.446;5.404;2023-03-25T02:02:07;99931.91;;;15.70;49.78
13050;BME280;6591;51.446;5.404;2023-03-25T02:04:52;99921.22;;;15.70;49.78
13050;BME280;6591;51.446;5.404;2023-03-25T02:07:32;99931.66;;;15.73;49.64
13050;BME280;6591;51.446;5.404;2023-03-25T02:10:08;99924.34;;;15.75;49.86
13050;BME280;6591;51.446;5.404;2023-03-25T02:12:35;99923.13;;;15.79;50.00
13050;BME280;6591;51.446;5.404;2023-03-25T02:15:06;99927.63;;;15.79;49.93
13050;BME280;6591;51.446;5.404;2023-03-25T02:17:56;99914.34;;;15.77;49.71
13050;BME280;6591;51.446;5.404;2023-03-25T02:20:48;99914.34;;;15.77;49.78
13050;BME280;6591;51.446;5.404;2023-03-25T02:23:51;99910.97;;;15.75;50.36
13050;BME280;6591;51.446;5.404;2023-03-25T02:32:43;99926.03;;;15.76;50.09
13050;BME280;6591;51.446;5.404;2023-03-25T02:39:08;99911.09;;;15.74;49.97
13050;BME280;6591;51.446;5.404;2023-03-25T02:47:17;99916.31;;;15.75;49.79
13050;BME280;6591;51.446;5.404;2023-03-25T02:49:55;99913.78;;;15.74;49.71
13050;BME280;6591;51.446;5.404;2023-03-25T02:52:30;99907.81;;;15.70;49.71
13050;BME280;6591;51.446;5.404;2023-03-25T02:55:01;99904.53;;;15.66;49.68
13050;BME280;6591;51.446;5.404;2023-03-25T02:57:34;99902.97;;;15.64;49.89
13050;BME280;6591;51.446;5.404;2023-03-25T03:00:08;99910.38;;;15.60;49.84
13050;BME280;6591;51.446;5.404;2023-03-25T03:02:59;99897.38;;;15.56;49.99
13050;BME280;6591;51.446;5.404;2023-03-25T03:05:36;99896.50;;;15.55;50.31
13050;BME280;6591;51.446;5.404;2023-03-25T03:22:44;99894.84;;;15.54;50.45
13050;BME280;6591;51.446;5.404;2023-03-25T03:25:48;99905.53;;;15.54;50.01
13050;BME280;6591;51.446;5.404;2023-03-25T03:28:48;99897.38;;;15.56;50.39
13050;BME280;6591;51.446;5.404;2023-03-25T03:31:25;99890.78;;;15.60;50.55
13050;BME280;6591;51.446;5.404;2023-03-25T03:34:26;99889.81;;;15.61;50.39
13050;BME280;6591;51.446;5.404;2023-03-25T03:36:56;99888.72;;;15.63;50.39
13050;BME280;6591;51.446;5.404;2023-03-25T03:39:31;99890.44;;;15.64;50.38
13050;BME280;6591;51.446;5.404;2023-03-25T03:42:10;99893.94;;;15.65;50.37
13050;BME280;6591;51.446;5.404;2023-03-25T03:44:48;99906.22;;;15.67;50.12
13050;BME280;6591;51.446;5.404;2023-03-25T03:47:25;99898.22;;;15.67;50.06
13050;BME280;6591;51.446;5.404;2023-03-25T03:50:03;99883.97;;;15.67;50.14
13050;BME280;6591;51.446;5.404;2023-03-25T03:52:42;99896.88;;;15.62;49.97
13050;BME280;6591;51.446;5.404;2023-03-25T03:55:19;99897.13;;;15.59;50.07
13050;BME280;6591;51.446;5.404;2023-03-25T03:58:01;99893.13;;;15.53;50.15
13050;BME280;6591;51.446;5.404;2023-03-25T04:00:42;99902.31;;;15.49;50.11
13050;BME280;6591;51.446;5.404;2023-03-25T04:03:57;99904.66;;;15.43;50.25
13050;BME280;6591;51.446;5.404;2023-03-25T04:06:46;99899.69;;;15.38;50.51
13050;BME280;6591;51.446;5.404;2023-03-25T04:12:28;99901.75;;;15.35;50.61
13050;BME280;6591;51.446;5.404;2023-03-25T04:15:00;99900.78;;;15.36;50.50
13050;BME280;6591;51.446;5.404;2023-03-25T04:17:29;99904.41;;;15.35;50.41
13050;BME280;6591;51.446;5.404;2023-03-25T04:19:59;99902.84;;;15.32;50.60
13050;BME280;6591;51.446;5.404;2023-03-25T04:22:27;99908.44;;;15.29;50.63
13050;BME280;6591;51.446;5.404;2023-03-25T04:24:54;99913.94;;;15.27;50.53
13050;BME280;6591;51.446;5.404;2023-03-25T04:27:22;99905.16;;;15.25;50.82
13050;BME280;6591;51.446;5.404;2023-03-25T04:29:49;99912.34;;;15.25;50.97
13050;BME280;6591;51.446;5.404;2023-03-25T04:32:18;99907.72;;;15.27;51.08
13050;BME280;6591;51.446;5.404;2023-03-25T04:34:45;99910.25;;;15.28;51.19
13050;BME280;6591;51.446;5.404;2023-03-25T04:37:13;99914.53;;;15.31;51.08
13050;BME280;6591;51.446;5.404;2023-03-25T04:39:40;99904.41;;;15.35;51.10
13050;BME280;6591;51.446;5.404;2023-03-25T04:42:09;99900.78;;;15.36;50.86
13050;BME280;6591;51.446;5.404;2023-03-25T04:44:39;99904.41;;;15.35;50.77
13050;BME280;6591;51.446;5.404;2023-03-25T04:47:10;99896.41;;;15.35;50.83
13050;BME280;6591;51.446;5.404;2023-03-25T04:49:40;99897.34;;;15.34;50.53
13050;BME280;6591;51.446;5.404;2023-03-25T04:52:11;99912.69;;;15.32;50.63
13050;BME280;6591;51.446;5.404;2023-03-25T04:54:38;99913.66;;;15.31;50.83
13050;BME280;6591;51.446;5.404;2023-03-25T04:57:06;99895.91;;;15.30;50.97
13050;BME280;6591;51.446;5.404;2023-03-25T04:59:36;99907.72;;;15.27;50.94
13050;BME280;6591;51.446;5.404;2023-03-25T05:02:05;99905.16;;;15.25;51.14
13050;BME280;6591;51.446;5.404;2023-03-25T05:04:33;99899.94;;;15.24;50.86
13050;BME280;6591;51.446;5.404;2023-03-25T05:07:00;99898.22;;;15.23;51.19
13050;BME280;6591;51.446;5.404;2023-03-25T05:09:28;99899.22;;;15.22;51.14
13050;BME280;6591;51.446;5.404;2023-03-25T05:11:56;99876.22;;;15.19;50.86
13050;BME280;6591;51.446;5.404;2023-03-25T05:14:23;99894.25;;;15.17;51.37
13050;BME280;6591;51.446;5.404;2023-03-25T05:16:50;99906.75;;;15.17;51.01
13050;BME280;6591;51.446;5.404;2023-03-25T05:19:18;99885.38;;;15.17;51.17
13050;BME280;6591;51.446;5.404;2023-03-25T05:21:46;99893.38;;;15.17;51.33
13050;BME280;6591;51.446;5.404;2023-03-25T05:24:14;99889.88;;;15.16;51.22
13050;BME280;6591;51.446;5.404;2023-03-25T05:26:41;99891.56;;;15.17;50.98
13050;BME280;6591;51.446;5.404;2023-03-25T05:29:13;99902.97;;;15.19;51.06
13050;BME280;6591;51.446;5.404;2023-03-25T05:31:45;99894.25;;;15.17;51.08
13050;BME280;6591;51.446;5.404;2023-03-25T05:34:14;99919.75;;;15.21;51.12
13050;BME280;6591;51.446;5.404;2023-03-25T05:36:43;99922.28;;;15.23;51.05
13050;BME280;6591;51.446;5.404;2023-03-25T05:39:11;99916.81;;;15.24;51.26
13050;BME280;6591;51.446;5.404;2023-03-25T05:41:38;99920.34;;;15.25;50.88
13050;BME280;6591;51.446;5.404;2023-03-25T05:44:07;99924.63;;;15.27;51.17
13050;BME280;6591;51.446;5.404;2023-03-25T05:46:35;99922.66;;;15.30;51.06
13050;BME280;6591;51.446;5.404;2023-03-25T05:49:02;99934.09;;;15.32;50.77
13050;BME280;6591;51.446;5.404;2023-03-25T05:51:33;99933.13;;;15.33;51.24
13050;BME280;6591;51.446;5.404;2023-03-25T05:54:05;99922.19;;;15.36;51.27
13050;BME280;6591;51.446;5.404;2023-03-25T05:56:38;99931.91;;;15.37;51.10
13050;BME280;6591;51.446;5.404;2023-03-25T05:59:06;99926.44;;;15.38;51.13
13050;BME280;6591;51.446;5.404;2023-03-25T06:01:35;99931.66;;;15.40;50.86
13050;BME280;6591;51.446;5.404;2023-03-25T06:04:11;99939.69;;;15.40;50.74
13050;BME280;6591;51.446;5.404;2023-03-25T06:06:41;99944.81;;;15.43;50.53
13050;BME280;6591;51.446;5.404;2023-03-25T06:09:08;99947.47;;;15.43;50.86
13050;BME280;6591;51.446;5.404;2023-03-25T06:11:37;99949.28;;;15.42;50.59
13050;BME280;6591;51.446;5.404;2023-03-25T06:14:06;99951.22;;;15.40;50.33
13050;BME280;6591;51.446;5.404;2023-03-25T06:16:36;99937.25;;;15.37;50.41
13050;BME280;6591;51.446;5.404;2023-03-25T06:19:04;99939.19;;;15.35;50.53
13050;BME280;6591;51.446;5.404;2023-03-25T06:21:33;99929.47;;;15.34;50.75
13050;BME280;6591;51.446;5.404;2023-03-25T06:24:01;99934.94;;;15.32;50.41
13050;BME280;6591;51.446;5.404;2023-03-25T06:26:29;99947.47;;;15.32;50.44
13050;BME280;6591;51.446;5.404;2023-03-25T06:28:56;99955.50;;;15.32;50.42
13050;BME280;6591;51.446;5.404;2023-03-25T06:31:26;99947.47;;;15.32;50.43
13050;BME280;6591;51.446;5.404;2023-03-25T06:33:55;99934.09;;;15.32;50.64
13050;BME280;6591;51.446;5.404;2023-03-25T06:36:22;99954.53;;;15.33;50.59
13050;BME280;6591;51.446;5.404;2023-03-25T06:38:51;99949.88;;;15.35;50.78
13050;BME280;6591;51.446;5.404;2023-03-25T06:41:20;99960.22;;;15.39;50.58
13050;BME280;6591;51.446;5.404;2023-03-25T06:44:12;99958.88;;;15.45;50.92
13050;BME280;6591;51.446;5.404;2023-03-25T06:47:00;99954.78;;;15.52;50.88
13050;BME280;6591;51.446;5.404;2023-03-25T06:49:31;99955.00;;;15.60;50.82
13050;BME280;6591;51.446;5.404;2023-03-25T06:51:59;99965.13;;;15.67;50.53
13050;BME280;6591;51.446;5.404;2023-03-25T06:54:26;99967.31;;;15.74;50.73
13050;BME280;6591;51.446;5.404;2023-03-25T06:56:53;99967.78;;;15.79;50.51
13050;BME280;6591;51.446;5.404;2023-03-25T06:59:20;99968.38;;;15.82;50.12
13050;BME280;6591;51.446;5.404;2023-03-25T07:01:47;99964.22;;;15.89;50.31
13050;BME280;6591;51.446;5.404;2023-03-25T07:04:15;99960.31;;;15.93;50.28
13050;BME280;6591;51.446;5.404;2023-03-25T07:06:44;99964.31;;;15.99;50.60
13050;BME280;6591;51.446;5.404;2023-03-25T07:09:11;99967.34;;;16.05;50.64
13050;BME280;6591;51.446;5.404;2023-03-25T07:11:40;99977.56;;;16.12;50.49
13050;BME280;6591;51.446;5.404;2023-03-25T07:14:07;99963.66;;;16.18;50.34
13050;BME280;6591;51.446;5.404;2023-03-25T07:16:34;99966.78;;;16.23;50.11
13050;BME280;6591;51.446;5.404;2023-03-25T07:19:01;99965.44;;;16.28;50.21
13050;BME280;6591;51.446;5.404;2023-03-25T07:21:29;99968.06;;;16.39;50.34
13050;BME280;6591;51.446;5.404;2023-03-25T07:23:57;99957.59;;;16.47;50.11
13050;BME280;6591;51.446;5.404;2023-03-25T07:26:24;99962.28;;;16.55;50.48
13050;BME280;6591;51.446;5.404;2023-03-25T07:28:51;99976.50;;;16.67;50.14
13050;BME280;6591;51.446;5.404;2023-03-25T07:31:18;99982.47;;;16.70;49.40
13050;BME280;6591;51.446;5.404;2023-03-25T07:33:46;99974.69;;;16.67;49.08
13050;BME280;6591;51.446;5.404;2023-03-25T07:36:13;99978.84;;;16.60;49.31
13050;BME280;6591;51.446;5.404;2023-03-25T07:38:42;99980.72;;;16.48;49.00
13050;BME280;6591;51.446;5.404;2023-03-25T07:41:11;99978.78;;;16.39;49.02
13050;BME280;6591;51.446;5.404;2023-03-25T07:43:50;99996.72;;;16.28;49.28
13050;BME280;6591;51.446;5.404;2023-03-25T07:46:36;99991.66;;;16.14;49.25
13050;BME280;6591;51.446;5.404;2023-03-25T07:49:04;99991.69;;;16.02;49.47
13050;BME280;6591;51.446;5.404;2023-03-25T07:51:31;99988.91;;;15.93;49.29
13050;BME280;6591;51.446;5.404;2023-03-25T07:54:00;100002.94;;;15.85;49.80
13050;BME280;6591;51.446;5.404;2023-03-25T07:56:32;99996.25;;;15.80;50.00
13050;BME280;6591;51.446;5.404;2023-03-25T07:58:59;99999.31;;;15.75;50.10
13050;BME280;6591;51.446;5.404;2023-03-25T08:01:27;100002.94;;;15.74;50.22
13050;BME280;6591;51.446;5.404;2023-03-25T08:03:54;100006.34;;;15.76;50.28
13050;BME280;6591;51.446;5.404;2023-03-25T08:06:22;100001.84;;;15.77;50.50
13050;BME280;6591;51.446;5.404;2023-03-25T08:08:49;99999.03;;;15.78;50.41
13050;BME280;6591;51.446;5.404;2023-03-25T08:11:17;100006.09;;;15.79;50.59
13050;BME280;6591;51.446;5.404;2023-03-25T08:13:44;100022.88;;;15.81;50.67
13050;BME280;6591;51.446;5.404;2023-03-25T08:16:13;100022.41;;;15.76;51.15
13050;BME280;6591;51.446;5.404;2023-03-25T08:18:42;100019.25;;;15.71;51.36
13050;BME280;6591;51.446;5.404;2023-03-25T08:21:12;100021.44;;;15.66;51.42
13050;BME280;6591;51.446;5.404;2023-03-25T08:23:39;100023.41;;;15.64;51.83
13050;BME280;6591;51.446;5.404;2023-03-25T08:26:06;100029.81;;;15.61;52.41
13050;BME280;6591;51.446;5.404;2023-03-25T08:28:34;100037.97;;;15.60;53.19
13050;BME280;6591;51.446;5.404;2023-03-25T08:31:05;100041.66;;;15.59;53.10
13050;BME280;6591;51.446;5.404;2023-03-25T08:33:35;100047.59;;;15.62;53.46
13050;BME280;6591;51.446;5.404;2023-03-25T08:36:07;100040.41;;;15.63;53.30
13050;BME280;6591;51.446;5.404;2023-03-25T08:38:40;100046.75;;;15.62;53.17
13050;BME280;6591;51.446;5.404;2023-03-25T08:41:07;100047.84;;;15.59;53.64
13050;BME280;6591;51.446;5.404;2023-03-25T08:43:35;100038.13;;;15.58;53.57
13050;BME280;6591;51.446;5.404;2023-03-25T08:46:02;100050.16;;;15.64;54.22
13050;BME280;6591;51.446;5.404;2023-03-25T08:48:30;100031.16;;;15.67;54.41
13050;BME280;6591;51.446;5.404;2023-03-25T08:50:57;100032.75;;;15.70;54.52
13050;BME280;6591;51.446;5.404;2023-03-25T08:53:25;100036.88;;;15.74;54.23
13050;BME280;6591;51.446;5.404;2023-03-25T08:55:55;100047.34;;;15.77;54.50
13050;BME280;6591;51.446;5.404;2023-03-25T08:58:23;100046.13;;;15.81;54.64
13050;BME280;6591;51.446;5.404;2023-03-25T09:00:55;100030.41;;;15.87;54.70
13050;BME280;6591;51.446;5.404;2023-03-25T09:03:24;100038.81;;;15.94;54.68
13050;BME280;6591;51.446;5.404;2023-03-25T09:05:53;100048.31;;;15.98;54.61
13050;BME280;6591;51.446;5.404;2023-03-25T09:08:21;100042.84;;;15.99;54.55
13050;BME280;6591;51.446;5.404;2023-03-25T09:10:49;100039.31;;;15.99;54.18
13050;BME280;6591;51.446;5.404;2023-03-25T09:13:16;100039.56;;;15.96;54.33
13050;BME280;6591;51.446;5.404;2023-03-25T09:15:44;100045.50;;;15.99;54.50
13050;BME280;6591;51.446;5.404;2023-03-25T09:18:12;100048.94;;;16.01;54.68
13050;BME280;6591;51.446;5.404;2023-03-25T09:20:41;100046.00;;;16.04;54.48
13050;BME280;6591;51.446;5.404;2023-03-25T09:23:09;100039.66;;;16.05;54.68
13050;BME280;6591;51.446;5.404;2023-03-25T09:25:37;100030.66;;;16.06;54.55
13050;BME280;6591;51.446;5.404;2023-03-25T09:28:04;100034.78;;;16.10;54.97
13050;BME280;6591;51.446;5.404;2023-03-25T09:30:32;100040.84;;;16.13;54.80
13050;BME280;6591;51.446;5.404;2023-03-25T09:32:59;100053.91;;;16.17;54.92
13050;BME280;6591;51.446;5.404;2023-03-25T09:35:27;100055.34;;;16.21;54.83
13050;BME280;6591;51.446;5.404;2023-03-25T09:37:58;100052.50;;;16.23;55.02
13050;BME280;6591;51.446;5.404;2023-03-25T09:40:25;100055.81;;;16.26;54.98
13050;BME280;6591;51.446;5.404;2023-03-25T09:43:11;100055.66;;;16.28;54.94
13050;BME280;6591;51.446;5.404;2023-03-25T09:45:46;100054.47;;;16.32;54.84
13050;BME280;6591;51.446;5.404;2023-03-25T09:48:39;100068.72;;;16.32;54.35
13050;BME280;6591;51.446;5.404;2023-03-25T09:51:18;100066.50;;;16.37;55.07
13050;BME280;6591;51.446;5.404;2023-03-25T09:54:26;100067.84;;;16.43;54.81
13050;BME280;6591;51.446;5.404;2023-03-25T09:57:03;100076.81;;;16.53;54.98
13050;BME280;6591;51.446;5.404;2023-03-25T09:59:47;100072.56;;;16.62;55.01
13050;BME280;6591;51.446;5.404;2023-03-25T10:02:39;100058.38;;;16.71;55.49
13050;BME280;6591;51.446;5.404;2023-03-25T10:11:10;100063.31;;;17.28;55.51
13050;BME280;6591;51.446;5.404;2023-03-25T10:14:12;100053.44;;;17.49;55.32
13050;BME280;6591;51.446;5.404;2023-03-25T10:23:27;100050.66;;;18.31;54.71
13050;BME280;6591;51.446;5.404;2023-03-25T10:26:14;100053.94;;;18.53;53.97
13050;BME280;6591;51.446;5.404;2023-03-25T10:28:56;100041.53;;;18.72;53.83
13050;BME280;6591;51.446;5.404;2023-03-25T10:31:30;100062.06;;;18.92;53.52
13050;BME280;6591;51.446;5.404;2023-03-25T10:34:06;100055.69;;;19.02;52.25
13050;BME280;6591;51.446;5.404;2023-03-25T10:36:46;100072.25;;;19.08;51.47
13050;BME280;6591;51.446;5.404;2023-03-25T10:39:21;100071.81;;;19.12;51.44
13050;BME280;6591;51.446;5.404;2023-03-25T10:41:58;100067.44;;;19.11;50.97
13050;BME280;6591;51.446;5.404;2023-03-25T10:44:28;100060.78;;;19.15;51.31
13050;BME280;6591;51.446;5.404;2023-03-25T10:47:06;100058.09;;;19.15;50.15
13050;BME280;6591;51.446;5.404;2023-03-25T10:49:40;100052.13;;;19.21;51.13
13050;BME280;6591;51.446;5.404;2023-03-25T10:52:08;100061.19;;;19.30;51.40
13050;BME280;6591;51.446;5.404;2023-03-25T10:54:41;100052.25;;;19.39;50.72
13050;BME280;6591;51.446;5.404;2023-03-25T10:57:21;100063.31;;;19.45;49.35
13050;BME280;6591;51.446;5.404;2023-03-25T11:00:13;100053.81;;;19.51;48.82
13050;BME280;6591;51.446;5.404;2023-03-25T11:02:49;100049.50;;;19.58;49.19
13050;BME280;6591;51.446;5.404;2023-03-25T11:05:22;100029.75;;;19.77;49.99
13050;BME280;6591;51.446;5.404;2023-03-25T11:07:58;100048.53;;;19.96;47.06
13050;BME280;6591;51.446;5.404;2023-03-25T11:10:47;100055.50;;;20.16;46.89
13050;BME280;6591;51.446;5.404;2023-03-25T11:13:17;100106.91;;;20.42;47.07
13050;BME280;6591;51.446;5.404;2023-03-25T11:15:47;100099.84;;;20.59;46.22
13050;BME280;6591;51.446;5.404;2023-03-25T11:18:29;100060.88;;;20.71;45.40
13050;BME280;6591;51.446;5.404;2023-03-25T11:21:08;100078.75;;;20.72;41.82
13050;BME280;6591;51.446;5.404;2023-03-25T11:23:45;100066.41;;;20.69;43.10
13050;BME280;6591;51.446;5.404;2023-03-25T11:26:22;100071.94;;;20.68;42.97
13050;BME280;6591;51.446;5.404;2023-03-25T11:29:03;100071.88;;;20.60;41.92
13050;BME280;6591;51.446;5.404;2023-03-25T11:31:36;100073.88;;;20.58;42.30
13050;BME280;6591;51.446;5.404;2023-03-25T11:34:17;100082.03;;;20.48;42.04
13050;BME280;6591;51.446;5.404;2023-03-25T11:36:54;100080.41;;;20.38;42.85
13050;BME280;6591;51.446;5.404;2023-03-25T11:39:32;100068.78;;;20.27;42.42
13050;BME280;6591;51.446;5.404;2023-03-25T11:42:41;100076.97;;;20.08;42.87
13050;BME280;6591;51.446;5.404;2023-03-25T11:45:37;100070.06;;;19.96;43.15
13050;BME280;6591;51.446;5.404;2023-03-25T11:48:19;100082.19;;;19.82;43.67
13050;BME280;6591;51.446;5.404;2023-03-25T11:51:01;100068.78;;;19.63;43.61
13050;BME280;6591;51.446;5.404;2023-03-25T11:53:31;100082.16;;;19.45;43.70
13050;BME280;6591;51.446;5.404;2023-03-25T11:56:07;100093.63;;;19.28;44.17
13050;BME280;6591;51.446;5.404;2023-03-25T11:58:38;100087.28;;;19.20;44.77
13050;BME280;6591;51.446;5.404;2023-03-25T12:01:25;100083.31;;;19.14;45.08
13050;BME280;6591;51.446;5.404;2023-03-25T12:04:22;100095.59;;;19.26;44.78
13050;BME280;6591;51.446;5.404;2023-03-25T12:07:08;100091.34;;;19.43;44.84
13050;BME280;6591;51.446;5.404;2023-03-25T12:09:35;100083.25;;;19.62;44.92
13050;BME280;6591;51.446;5.404;2023-03-25T12:12:29;100086.16;;;19.78;44.52
13050;BME280;6591;51.446;5.404;2023-03-25T12:15:06;100096.31;;;19.94;44.09
13050;BME280;6591;51.446;5.404;2023-03-25T12:20:56;100084.53;;;19.95;43.46
13050;BME280;6591;51.446;5.404;2023-03-25T12:26:33;100110.47;;;19.59;42.84
13050;BME280;6591;51.446;5.404;2023-03-25T12:32:22;100108.38;;;18.95;42.79
13050;BME280;6591;51.446;5.404;2023-03-25T12:41:19;100102.47;;;18.02;43.93
13050;BME280;6591;51.446;5.404;2023-03-25T12:46:52;100099.78;;;18.02;45.60
13050;BME280;6591;51.446;5.404;2023-03-25T12:58:33;100088.00;;;18.83;45.09
13050;BME280;6591;51.446;5.404;2023-03-25T13:02:09;100115.16;;;18.80;45.06
13050;BME280;6591;51.446;5.404;2023-03-25T13:04:52;100112.88;;;18.66;45.45
13050;BME280;6591;51.446;5.404;2023-03-25T13:07:33;100104.44;;;18.40;46.33
13050;BME280;6591;51.446;5.404;2023-03-25T13:10:12;100110.75;;;18.20;47.03
13050;BME280;6591;51.446;5.404;2023-03-25T13:12:53;100120.28;;;17.94;47.30
13050;BME280;6591;51.446;5.404;2023-03-25T13:15:31;100120.16;;;17.74;48.23
13050;BME280;6591;51.446;5.404;2023-03-25T13:18:26;100115.38;;;17.57;48.44
13050;BME280;6591;51.446;5.404;2023-03-25T13:21:31;100106.06;;;17.41;49.72
13050;BME280;6591;51.446;5.404;2023-03-25T13:24:09;100106.94;;;17.41;50.19
13050;BME280;6591;51.446;5.404;2023-03-25T13:26:39;100095.53;;;17.49;50.82
13050;BME280;6591;51.446;5.404;2023-03-25T13:31:43;100103.13;;;17.64;50.92
13050;BME280;6591;51.446;5.404;2023-03-25T13:34:32;100103.22;;;17.74;50.54
13050;BME280;6591;51.446;5.404;2023-03-25T13:37:35;100112.28;;;17.83;50.21
13050;BME280;6591;51.446;5.404;2023-03-25T13:43:19;100111.47;;;17.92;49.76
13050;BME280;6591;51.446;5.404;2023-03-25T13:46:08;100120.47;;;17.81;48.90
13050;BME280;6591;51.446;5.404;2023-03-25T13:48:57;100127.75;;;17.69;48.98
13050;BME280;6591;51.446;5.404;2023-03-25T13:51:27;100126.97;;;17.58;49.15
13050;BME280;6591;51.446;5.404;2023-03-25T13:54:18;100129.50;;;17.38;48.97
13050;BME280;6591;51.446;5.404;2023-03-25T14:06:15;100140.19;;;16.97;50.78
13050;BME280;6591;51.446;5.404;2023-03-25T14:12:22;100133.03;;;17.18;51.49
13050;BME280;6591;51.446;5.404;2023-03-25T14:15:00;100128.66;;;17.38;50.88
13050;BME280;6591;51.446;5.404;2023-03-25T14:17:31;100118.91;;;17.58;51.04
13050;BME280;6591;51.446;5.404;2023-03-25T14:20:04;100129.22;;;17.73;50.10
13050;BME280;6591;51.446;5.404;2023-03-25T14:22:39;100123.06;;;17.92;50.24
13050;BME280;6591;51.446;5.404;2023-03-25T14:25:27;100132.50;;;18.17;50.65
13050;BME280;6591;51.446;5.404;2023-03-25T14:27:55;100125.09;;;18.40;51.29
13050;BME280;6591;51.446;5.404;2023-03-25T14:30:26;100133.69;;;18.64;51.00
13050;BME280;6591;51.446;5.404;2023-03-25T14:32:54;100135.41;;;18.84;50.16
13050;BME280;6591;51.446;5.404;2023-03-25T14:43:51;100143.22;;;18.78;48.16
13050;BME280;6591;51.446;5.404;2023-03-25T14:46:36;100146.16;;;18.75;48.26
13050;BME280;6591;51.446;5.404;2023-03-25T14:57:01;100140.22;;;19.00;47.13
13050;BME280;6591;51.446;5.404;2023-03-25T14:59:41;100135.72;;;19.20;47.48
13050;BME280;6591;51.446;5.404;2023-03-25T15:02:31;100153.44;;;19.41;47.51
13050;BME280;6591;51.446;5.404;2023-03-25T15:05:12;100141.09;;;19.68;47.70
13050;BME280;6591;51.446;5.404;2023-03-25T15:07:52;100141.84;;;19.97;47.97
13050;BME280;6591;51.446;5.404;2023-03-25T15:10:29;100140.19;;;20.23;47.48
13050;BME280;6591;51.446;5.404;2023-03-25T15:13:32;100125.09;;;20.40;45.85
13050;BME280;6591;51.446;5.404;2023-03-25T15:19:17;100142.44;;;20.65;45.92
13050;BME280;6591;51.446;5.404;2023-03-25T15:24:37;100139.00;;;21.08;46.84
13050;BME280;6591;51.446;5.404;2023-03-25T15:30:50;100135.84;;;21.30;43.03
13050;BME280;6591;51.446;5.404;2023-03-25T15:45:09;100140.81;;;20.72;41.48
13050;BME280;6591;51.446;5.404;2023-03-25T15:57:25;100179.94;;;20.21;39.38
13050;BME280;6591;51.446;5.404;2023-03-25T16:00:13;100167.16;;;20.23;40.18
13050;BME280;6591;51.446;5.404;2023-03-25T16:02:53;100170.41;;;20.27;40.55
13050;BME280;6591;51.446;5.404;2023-03-25T16:05:25;100174.25;;;20.34;41.10
13050;BME280;6591;51.446;5.404;2023-03-25T16:07:55;100161.84;;;20.41;40.89